Time;durP1;ratioP1;P1;durP2;ratioP2;P2;SDS_P1;SDS_P2;PMS_P1;PMS_P2;Temp;Humidity;BMP_temperature;BMP_pressure;BME280_temperature;BME280_humidity;BME280_pressure;Samples;Min_cycle;Max_cycle;Signal;HPM_P1;HPM_P2
2022/10/24 00:02:05;;;;;;;;;;;;;;;20.71;66.93;99095.81;7308993;19;129445;-37
2022/10/24 00:04:34;;;;;;;;;;;;;;;20.71;67.20;99089.78;7309358;19;129467;-38
2022/10/24 00:06:59;;;;;;;;;;;;;;;20.70;67.00;99082.91;7308511;19;133667;-37
2022/10/24 00:09:24;;;;;;;;;;;;;;;20.68;66.80;99079.63;7306525;19;129689;-37
2022/10/24 00:11:50;;;;;;;;;;;;;;;20.69;67.31;99081.28;7307350;19;130361;-37
2022/10/24 00:14:15;;;;;;;;;;;;;;;20.68;66.70;99090.91;7308533;19;129241;-37
2022/10/24 00:16:40;;;;;;;;;;;;;;;20.72;67.04;99096.66;7308285;19;130834;-37
2022/10/24 00:19:05;;;;;;;;;;;;;;;20.73;67.04;99093.91;7305710;19;131096;-37
2022/10/24 00:21:30;;;;;;;;;;;;;;;20.71;67.06;99097.59;7308271;19;129601;-38
2022/10/24 00:23:56;;;;;;;;;;;;;;;20.68;67.48;99095.28;7307476;19;130095;-38
2022/10/24 00:26:21;;;;;;;;;;;;;;;20.63;67.30;99087.06;7306919;19;130191;-37
2022/10/24 00:28:46;;;;;;;;;;;;;;;20.72;67.40;99114.94;7303714;19;129695;-38
2022/10/24 00:31:13;;;;;;;;;;;;;;;20.72;67.22;99107.09;7307099;19;129011;-37
2022/10/24 00:33:39;;;;;;;;;;;;;;;20.71;67.14;99111.50;7307447;19;130733;-37
2022/10/24 00:36:04;;;;;;;;;;;;;;;20.71;67.35;99115.91;7307380;19;129213;-38
2022/10/24 00:38:29;;;;;;;;;;;;;;;20.65;67.38;99106.88;7306691;19;130109;-37
2022/10/24 00:40:54;;;;;;;;;;;;;;;20.71;67.04;99116.72;7307355;19;130386;-37
2022/10/24 00:43:23;;;;;;;;;;;;;;;20.72;67.07;99107.09;7306442;19;129111;-37
2022/10/24 00:45:49;;;;;;;;;;;;;;;20.71;67.16;99100.22;7307622;19;130568;-37
2022/10/24 00:48:26;;;;;;;;;;;;;;;20.73;66.88;99096.50;7312481;19;130331;-38
2022/10/24 00:50:59;;;;;;;;;;;;;;;20.72;67.45;99107.91;7311841;19;131525;-37
2022/10/24 00:53:25;;;;;;;;;;;;;;;20.68;67.11;99100.50;7314948;19;129158;-40
2022/10/24 00:55:52;;;;;;;;;;;;;;;20.71;67.12;99103.66;7313696;19;130582;-37
2022/10/24 00:58:19;;;;;;;;;;;;;;;20.73;67.46;99099.13;7313151;19;129763;-37
2022/10/24 01:00:45;;;;;;;;;;;;;;;20.67;67.29;99078.81;7316145;19;130003;-38
2022/10/24 01:03:10;;;;;;;;;;;;;;;20.66;66.73;99086.78;7314235;19;129041;-37
2022/10/24 01:05:57;;;;;;;;;;;;;;;20.73;66.86;99098.28;7314485;19;131650;-37
2022/10/24 01:08:26;;;;;;;;;;;;;;;20.72;66.80;99107.91;7311870;19;129916;-38
2022/10/24 01:11:23;;;;;;;;;;;;;;;20.74;66.79;99105.19;7312992;19;129330;-36
2022/10/24 01:13:56;;;;;;;;;;;;;;;20.73;66.92;99100.91;7305575;19;147176;-37
2022/10/24 01:16:33;;;;;;;;;;;;;;;20.75;66.95;99085.91;7315323;19;129972;-38
2022/10/24 01:19:06;;;;;;;;;;;;;;;20.76;67.12;99091.97;7310585;19;130042;-37
2022/10/24 01:21:36;;;;;;;;;;;;;;;20.75;66.59;99091.13;7313991;19;129080;-38
2022/10/24 01:24:20;;;;;;;;;;;;;;;20.70;66.74;99082.91;7315018;19;129820;-38
2022/10/24 01:26:45;;;;;;;;;;;;;;;20.72;66.70;99084.41;7312941;19;130708;-37
2022/10/24 01:29:16;;;;;;;;;;;;;;;20.76;67.47;99095.38;7310884;19;129472;-37
2022/10/24 01:31:48;;;;;;;;;;;;;;;20.76;66.68;99110.25;7312907;19;131395;-38
2022/10/24 01:34:16;;;;;;;;;;;;;;;20.78;66.83;99111.75;7312699;19;130303;-38
2022/10/24 01:36:50;;;;;;;;;;;;;;;20.73;67.45;99103.50;7313352;19;130184;-37
2022/10/24 01:39:18;;;;;;;;;;;;;;;20.74;66.74;99094.72;7310101;19;129721;-38
2022/10/24 01:41:44;;;;;;;;;;;;;;;20.74;67.22;99089.50;7311307;19;129530;-36
2022/10/24 01:44:35;;;;;;;;;;;;;;;20.78;66.71;99090.84;7312205;19;129733;-36
2022/10/24 01:47:07;;;;;;;;;;;;;;;20.77;66.69;99078.75;7312325;19;129468;-37
2022/10/24 01:49:35;;;;;;;;;;;;;;;20.76;66.75;99069.25;7311289;19;132100;-37
2022/10/24 01:52:02;;;;;;;;;;;;;;;20.77;67.19;99059.63;7313512;19;130321;-38
2022/10/24 01:54:28;;;;;;;;;;;;;;;20.77;67.33;99057.84;7311968;19;129641;-37
2022/10/24 01:56:53;;;;;;;;;;;;;;;20.77;67.07;99061.28;7313067;19;129830;-37
2022/10/24 01:59:24;;;;;;;;;;;;;;;20.79;66.68;99063.75;7310158;19;129663;-36
2022/10/24 02:01:50;;;;;;;;;;;;;;;20.78;66.67;99056.88;7312450;19;130304;-37
2022/10/24 02:04:16;;;;;;;;;;;;;;;20.77;66.99;99053.44;7313629;19;129400;-36
2022/10/24 02:06:42;;;;;;;;;;;;;;;20.77;67.35;99053.44;7311010;19;130121;-37
2022/10/24 02:09:10;;;;;;;;;;;;;;;20.76;67.00;99058.00;7310385;19;130153;-37
2022/10/24 02:11:36;;;;;;;;;;;;;;;20.74;66.66;99058.16;7312956;19;130049;-37
2022/10/24 02:14:03;;;;;;;;;;;;;;;20.77;66.87;99062.25;7311827;19;130355;-37
2022/10/24 02:16:29;;;;;;;;;;;;;;;20.78;67.24;99062.09;7311943;19;130932;-37
2022/10/24 02:18:55;;;;;;;;;;;;;;;20.77;66.69;99057.84;7310333;19;130443;-37
2022/10/24 02:21:30;;;;;;;;;;;;;;;20.69;66.87;99047.31;7312563;19;131070;-37
2022/10/24 02:24:09;;;;;;;;;;;;;;;20.76;67.32;99050.97;7312904;19;130349;-38
2022/10/24 02:26:34;;;;;;;;;;;;;;;20.75;67.04;99054.56;7312101;19;131603;-36
2022/10/24 02:29:02;;;;;;;;;;;;;;;20.69;66.72;99029.84;7309200;19;129596;-39
2022/10/24 02:31:30;;;;;;;;;;;;;;;20.78;66.62;99043.81;7311007;19;129243;-38
2022/10/24 02:33:56;;;;;;;;;;;;;;;20.76;67.01;99035.28;7313252;19;130616;-39
2022/10/24 02:36:24;;;;;;;;;;;;;;;20.77;67.22;99041.34;7314021;19;129159;-37
2022/10/24 02:38:51;;;;;;;;;;;;;;;20.74;67.48;99032.03;7311562;19;130462;-37
2022/10/24 02:41:21;;;;;;;;;;;;;;;20.75;67.03;99018.00;7313449;19;129221;-38
2022/10/24 02:43:47;;;;;;;;;;;;;;;20.69;66.67;99006.34;7312474;19;129309;-37
2022/10/24 02:46:13;;;;;;;;;;;;;;;20.77;66.74;99016.84;7312509;19;129837;-37
2022/10/24 02:48:41;;;;;;;;;;;;;;;20.77;67.10;99023.91;7311428;19;129860;-36
2022/10/24 02:51:07;;;;;;;;;;;;;;;20.78;67.02;99025.53;7310818;19;128840;-37
2022/10/24 02:53:34;;;;;;;;;;;;;;;20.77;66.89;99036.97;7312883;19;129706;-38
2022/10/24 02:55:59;;;;;;;;;;;;;;;20.76;66.67;99024.84;7313554;19;129176;-38
2022/10/24 02:58:24;;;;;;;;;;;;;;;20.68;67.20;99022.16;7311565;19;129566;-38
2022/10/24 03:00:50;;;;;;;;;;;;;;;20.77;66.93;99029.13;7313523;19;130335;-37
2022/10/24 03:03:15;;;;;;;;;;;;;;;20.79;66.85;99027.19;7313216;19;129160;-38
2022/10/24 03:05:40;;;;;;;;;;;;;;;20.75;67.15;99031.06;7313684;19;129589;-37
2022/10/24 03:08:05;;;;;;;;;;;;;;;20.77;66.74;99032.53;7311506;19;130145;-37
2022/10/24 03:10:31;;;;;;;;;;;;;;;20.78;67.22;99035.97;7309476;19;130875;-37
2022/10/24 03:12:56;;;;;;;;;;;;;;;20.77;66.56;99040.38;7311632;19;129590;-37
2022/10/24 03:15:21;;;;;;;;;;;;;;;20.79;66.70;99044.66;7311357;19;129101;-38
2022/10/24 03:17:48;;;;;;;;;;;;;;;20.77;66.60;99050.81;7310576;19;129855;-38
2022/10/24 03:20:13;;;;;;;;;;;;;;;20.77;66.89;99055.25;7310921;19;129138;-38
2022/10/24 03:22:38;;;;;;;;;;;;;;;20.77;67.40;99052.63;7312456;19;130115;-38
2022/10/24 03:25:05;;;;;;;;;;;;;;;20.79;66.77;99057.72;7311552;19;129588;-37
2022/10/24 03:27:32;;;;;;;;;;;;;;;20.67;67.00;99044.03;7310577;19;130293;-37
2022/10/24 03:29:58;;;;;;;;;;;;;;;20.80;67.38;99060.16;7312670;19;129184;-36
2022/10/24 03:32:23;;;;;;;;;;;;;;;20.80;67.15;99048.88;7312035;19;129482;-36
2022/10/24 03:34:48;;;;;;;;;;;;;;;20.80;66.66;99048.88;7311610;19;129932;-37
2022/10/24 03:37:13;;;;;;;;;;;;;;;20.76;67.29;99056.19;7311107;19;129535;-37
2022/10/24 03:39:39;;;;;;;;;;;;;;;20.79;66.78;99058.53;7311498;19;130062;-37
2022/10/24 03:42:04;;;;;;;;;;;;;;;20.80;67.12;99051.50;7311621;19;129078;-37
2022/10/24 03:44:29;;;;;;;;;;;;;;;20.79;66.79;99058.53;7310934;19;129435;-37
2022/10/24 03:46:54;;;;;;;;;;;;;;;20.77;67.08;99057.84;7309702;19;130041;-37
2022/10/24 03:49:20;;;;;;;;;;;;;;;20.76;66.99;99058.81;7308938;19;129090;-38
2022/10/24 03:51:45;;;;;;;;;;;;;;;20.81;67.22;99059.19;7307209;19;128870;-37
2022/10/24 03:54:14;;;;;;;;;;;;;;;20.79;66.98;99060.31;7310986;19;130103;-38
2022/10/24 03:56:39;;;;;;;;;;;;;;;20.79;66.77;99066.38;7308849;19;129888;-38
2022/10/24 03:59:04;;;;;;;;;;;;;;;20.80;66.79;99051.50;7309508;19;129304;-38
2022/10/24 04:01:29;;;;;;;;;;;;;;;20.77;67.23;99060.47;7309644;19;129022;-37
2022/10/24 04:03:54;;;;;;;;;;;;;;;20.78;67.08;99059.50;7310262;19;130835;-37
2022/10/24 04:06:20;;;;;;;;;;;;;;;20.79;67.38;99060.31;7310567;19;130236;-37
2022/10/24 04:08:45;;;;;;;;;;;;;;;20.74;67.17;99058.16;7308137;19;129491;-37
2022/10/24 04:11:10;;;;;;;;;;;;;;;20.68;66.82;99040.44;7309224;19;128942;-37
2022/10/24 04:13:36;;;;;;;;;;;;;;;20.76;66.97;99066.66;7308528;19;130739;-38
2022/10/24 04:16:01;;;;;;;;;;;;;;;20.69;66.95;99049.94;7311044;19;130344;-37
2022/10/24 04:18:26;;;;;;;;;;;;;;;20.77;67.31;99057.84;7308772;19;129567;-37
2022/10/24 04:20:51;;;;;;;;;;;;;;;20.81;67.09;99067.03;7312563;19;129168;-37
2022/10/24 04:23:16;;;;;;;;;;;;;;;20.81;67.09;99074.06;7313726;19;129238;-37
2022/10/24 04:25:42;;;;;;;;;;;;;;;20.78;67.30;99062.09;7316355;19;129815;-37
2022/10/24 04:28:07;;;;;;;;;;;;;;;20.80;66.90;99059.34;7316363;19;129519;-38
2022/10/24 04:30:32;;;;;;;;;;;;;;;20.79;67.22;99066.38;7315397;19;128930;-37
2022/10/24 04:32:58;;;;;;;;;;;;;;;20.79;66.63;99066.38;7315937;19;130365;-38
2022/10/24 04:35:24;;;;;;;;;;;;;;;20.82;67.04;99071.31;7316340;19;129982;-39
2022/10/24 04:37:49;;;;;;;;;;;;;;;20.83;66.55;99083.38;7314915;19;129417;-38
2022/10/24 04:40:14;;;;;;;;;;;;;;;20.82;66.87;99079.13;7317586;19;130359;-38
2022/10/24 04:42:40;;;;;;;;;;;;;;;20.73;66.51;99066.94;7315228;19;130041;-37
2022/10/24 04:45:05;;;;;;;;;;;;;;;20.83;67.00;99079.94;7317389;19;129285;-38
2022/10/24 04:47:31;;;;;;;;;;;;;;;20.82;67.08;99076.53;7315911;19;129116;-38
2022/10/24 04:49:56;;;;;;;;;;;;;;;20.79;66.67;99086.44;7316841;19;129468;-38
2022/10/24 04:52:21;;;;;;;;;;;;;;;20.72;66.64;99062.69;7317102;19;129509;-39
2022/10/24 04:54:47;;;;;;;;;;;;;;;20.82;66.89;99068.69;7316593;19;129715;-37
2022/10/24 04:57:12;;;;;;;;;;;;;;;20.82;66.94;99079.13;7316081;19;128899;-38
2022/10/24 04:59:37;;;;;;;;;;;;;;;20.83;67.03;99072.94;7316144;19;130518;-38
2022/10/24 05:02:02;;;;;;;;;;;;;;;20.85;67.23;99071.00;7315656;19;130115;-37
2022/10/24 05:04:27;;;;;;;;;;;;;;;20.84;66.64;99064.13;7315587;19;130341;-38
2022/10/24 05:06:53;;;;;;;;;;;;;;;20.81;66.77;99067.03;7314768;19;130845;-38
2022/10/24 05:09:18;;;;;;;;;;;;;;;20.79;67.52;99065.53;7313667;19;129617;-38
2022/10/24 05:11:44;;;;;;;;;;;;;;;20.81;66.71;99069.63;7312880;19;129124;-37
2022/10/24 05:14:09;;;;;;;;;;;;;;;20.81;67.44;99077.47;7315882;19;129696;-36
2022/10/24 05:16:34;;;;;;;;;;;;;;;20.79;66.83;99082.06;7314745;19;129083;-38
2022/10/24 05:18:59;;;;;;;;;;;;;;;20.80;67.18;99086.28;7313064;19;131308;-38
2022/10/24 05:21:25;;;;;;;;;;;;;;;20.80;67.13;99083.69;7316177;19;129156;-37
2022/10/24 05:23:50;;;;;;;;;;;;;;;20.71;66.67;99058.44;7311896;19;130140;-38
2022/10/24 05:26:15;;;;;;;;;;;;;;;20.83;66.65;99080.78;7315898;19;128863;-37
2022/10/24 05:28:40;;;;;;;;;;;;;;;20.86;67.21;99092.72;7312436;19;129258;-37
2022/10/24 05:31:06;;;;;;;;;;;;;;;20.77;66.78;99077.94;7312943;19;130899;-37
2022/10/24 05:33:31;;;;;;;;;;;;;;;20.80;66.67;99083.69;7313785;19;129121;-38
2022/10/24 05:35:56;;;;;;;;;;;;;;;20.69;66.81;99066.41;7311442;19;129159;-37
2022/10/24 05:38:22;;;;;;;;;;;;;;;20.83;66.64;99070.31;7311676;19;129527;-37
2022/10/24 05:40:48;;;;;;;;;;;;;;;20.82;66.73;99073.09;7312466;19;129212;-38
2022/10/24 05:43:13;;;;;;;;;;;;;;;20.80;67.45;99073.22;7313846;19;130418;-38
2022/10/24 05:45:39;;;;;;;;;;;;;;;20.83;67.32;99062.47;7313989;19;129789;-38
2022/10/24 05:48:04;;;;;;;;;;;;;;;20.87;66.95;99061.22;7308917;19;130060;-37
2022/10/24 05:50:30;;;;;;;;;;;;;;;20.86;67.12;99070.03;7311903;19;130792;-37
2022/10/24 05:52:55;;;;;;;;;;;;;;;20.86;66.68;99074.44;7298817;19;130324;-38
2022/10/24 05:55:21;;;;;;;;;;;;;;;20.84;66.73;99076.38;7300150;19;131327;-38
2022/10/24 05:57:46;;;;;;;;;;;;;;;20.85;66.67;99081.44;7309037;19;130850;-37
2022/10/24 06:00:12;;;;;;;;;;;;;;;20.84;66.97;99082.41;7312490;19;129800;-37
2022/10/24 06:02:38;;;;;;;;;;;;;;;20.86;67.17;99083.09;7311089;19;130021;-37
2022/10/24 06:05:03;;;;;;;;;;;;;;;20.87;67.00;99083.91;7311429;19;130000;-37
2022/10/24 06:07:30;;;;;;;;;;;;;;;20.88;66.57;99096.81;7312395;19;130883;-36
2022/10/24 06:09:55;;;;;;;;;;;;;;;20.83;67.09;99098.22;7313476;19;129640;-37
2022/10/24 06:12:20;;;;;;;;;;;;;;;20.85;67.43;99091.91;7311325;19;132487;-37
2022/10/24 06:14:46;;;;;;;;;;;;;;;20.90;67.16;99087.06;7310637;19;129399;-38
2022/10/24 06:17:11;;;;;;;;;;;;;;;20.85;66.60;99086.69;7310921;19;129700;-37
2022/10/24 06:19:37;;;;;;;;;;;;;;;20.84;66.80;99079.78;7310921;19;129830;-37
2022/10/24 06:22:03;;;;;;;;;;;;;;;20.85;67.26;99086.69;7310894;19;131704;-37
2022/10/24 06:24:28;;;;;;;;;;;;;;;20.74;67.31;99077.25;7313508;19;128997;-37
2022/10/24 06:26:53;;;;;;;;;;;;;;;20.84;67.34;99092.84;7310764;19;131161;-38
2022/10/24 06:29:19;;;;;;;;;;;;;;;20.86;66.98;99087.50;7299390;19;130843;-38
2022/10/24 06:31:44;;;;;;;;;;;;;;;20.90;67.13;99089.66;7306161;19;129261;-37
2022/10/24 06:34:09;;;;;;;;;;;;;;;20.89;67.17;99082.78;7306761;19;129733;-37
2022/10/24 06:36:35;;;;;;;;;;;;;;;20.87;67.09;99089.97;7304016;19;129409;-38
2022/10/24 06:39:01;;;;;;;;;;;;;;;20.87;67.17;99089.97;7305357;19;130213;-38
2022/10/24 06:41:26;;;;;;;;;;;;;;;20.88;67.03;99091.59;7307560;19;129498;-38
2022/10/24 06:43:52;;;;;;;;;;;;;;;20.86;66.80;99090.91;7301120;19;129416;-38
2022/10/24 06:46:22;;;;;;;;;;;;;;;20.90;67.13;99096.69;7310561;19;129560;-38
2022/10/24 06:48:47;;;;;;;;;;;;;;;20.91;67.20;99096.53;7309763;19;130306;-38
2022/10/24 06:51:16;;;;;;;;;;;;;;;20.87;67.05;99095.19;7301101;19;130075;-36
2022/10/24 06:53:41;;;;;;;;;;;;;;;20.85;66.80;99091.91;7310441;19;129133;-38
2022/10/24 06:56:06;;;;;;;;;;;;;;;20.90;66.94;99107.97;7311619;19;131192;-37
2022/10/24 06:58:33;;;;;;;;;;;;;;;20.87;67.23;99108.25;7308149;19;130269;-37
2022/10/24 07:00:58;;;;;;;;;;;;;;;20.89;67.23;99118.56;7312022;19;129679;-37
2022/10/24 07:03:23;;;;;;;;;;;;;;;20.77;66.69;99097.84;7310175;19;128973;-37
2022/10/24 07:05:49;;;;;;;;;;;;;;;20.88;66.51;99117.72;7311125;19;129169;-37
2022/10/24 07:08:14;;;;;;;;;;;;;;;20.86;66.82;99114.44;7309835;19;129951;-37
2022/10/24 07:10:39;;;;;;;;;;;;;;;20.80;67.20;99111.59;7310938;19;129745;-38
2022/10/24 07:13:05;;;;;;;;;;;;;;;20.86;67.36;99118.88;7309452;19;130235;-37
2022/10/24 07:15:30;;;;;;;;;;;;;;;20.87;66.50;99120.50;7310328;19;129705;-38
2022/10/24 07:17:55;;;;;;;;;;;;;;;20.89;66.70;99111.53;7309556;19;130528;-37
2022/10/24 07:20:20;;;;;;;;;;;;;;;20.87;66.64;99116.09;7310787;19;130603;-37
2022/10/24 07:22:46;;;;;;;;;;;;;;;20.86;66.75;99117.06;7308328;19;130032;-38
2022/10/24 07:25:11;;;;;;;;;;;;;;;20.89;67.22;99110.72;7299923;19;130088;-37
2022/10/24 07:27:36;;;;;;;;;;;;;;;20.87;66.70;99104.81;7307714;19;130379;-38
2022/10/24 07:30:03;;;;;;;;;;;;;;;20.79;66.93;99095.13;7309680;19;130490;-37
2022/10/24 07:32:28;;;;;;;;;;;;;;;20.86;67.46;99105.78;7306496;19;131304;-37
2022/10/24 07:34:54;;;;;;;;;;;;;;;20.86;67.20;99111.03;7305450;19;131393;-37
2022/10/24 07:37:19;;;;;;;;;;;;;;;20.87;67.11;99104.81;7310456;19;129900;-37
2022/10/24 07:39:45;;;;;;;;;;;;;;;20.86;67.05;99103.97;7311252;19;130905;-37
2022/10/24 07:42:11;;;;;;;;;;;;;;;20.75;66.57;99093.75;7310581;19;130452;-37
2022/10/24 07:44:36;;;;;;;;;;;;;;;20.87;67.35;99110.03;7310418;19;129045;-38
2022/10/24 07:47:05;;;;;;;;;;;;;;;20.86;66.62;99118.88;7311333;19;129551;-38
2022/10/24 07:49:31;;;;;;;;;;;;;;;20.82;67.35;99113.09;7309542;19;130183;-38
2022/10/24 07:51:56;;;;;;;;;;;;;;;20.85;66.95;99120.63;7308366;19;129423;-36
2022/10/24 07:54:21;;;;;;;;;;;;;;;20.85;66.83;99115.41;7309477;19;129644;-37
2022/10/24 07:56:47;;;;;;;;;;;;;;;20.86;66.65;99113.63;7307602;19;130947;-38
2022/10/24 07:59:12;;;;;;;;;;;;;;;20.90;66.94;99115.81;7305796;19;129853;-37
2022/10/24 08:01:37;;;;;;;;;;;;;;;20.86;66.78;99103.97;7304799;19;130543;-37
2022/10/24 08:04:02;;;;;;;;;;;;;;;20.85;67.67;99104.97;7306257;19;131335;-38
2022/10/24 08:06:29;;;;;;;;;;;;;;;20.80;66.60;99101.97;7308145;19;131790;-38
2022/10/24 08:08:55;;;;;;;;;;;;;;;20.82;67.33;99114.88;7302552;19;130518;-38
2022/10/24 08:11:22;;;;;;;;;;;;;;;20.83;67.19;99109.50;7306434;19;129404;-38
2022/10/24 08:13:48;;;;;;;;;;;;;;;20.85;67.10;99107.56;7303474;19;129392;-38
2022/10/24 08:16:15;;;;;;;;;;;;;;;20.81;66.66;99093.16;7304330;19;130718;-37
2022/10/24 08:18:40;;;;;;;;;;;;;;;20.79;66.72;99092.50;7304215;19;130966;-36
2022/10/24 08:21:07;;;;;;;;;;;;;;;20.86;66.61;99101.38;7307509;19;129519;-37
2022/10/24 08:23:33;;;;;;;;;;;;;;;20.89;67.29;99105.50;7303653;19;129463;-38
2022/10/24 08:25:59;;;;;;;;;;;;;;;20.89;67.13;99103.69;7305730;19;130145;-38
2022/10/24 08:28:24;;;;;;;;;;;;;;;20.90;67.02;99109.75;7304965;19;130478;-38
2022/10/24 08:30:56;;;;;;;;;;;;;;;20.90;67.28;99107.97;7307563;19;129956;-37
2022/10/24 08:33:22;;;;;;;;;;;;;;;20.87;66.51;99113.47;7306011;19;129535;-35
2022/10/24 08:35:47;;;;;;;;;;;;;;;20.87;66.76;99105.66;7304328;19;132050;-38
2022/10/24 08:38:12;;;;;;;;;;;;;;;20.85;67.33;99110.19;7304293;19;130308;-38
2022/10/24 08:40:38;;;;;;;;;;;;;;;20.86;66.77;99111.81;7269412;19;131241;-38
2022/10/24 08:43:04;;;;;;;;;;;;;;;20.86;67.38;99114.44;7266066;19;131384;-38
2022/10/24 08:45:34;;;;;;;;;;;;;;;20.88;66.58;99122.97;7282996;19;129928;-38
2022/10/24 08:48:06;;;;;;;;;;;;;;;20.82;66.95;99096.59;7306989;19;129289;-37
2022/10/24 08:50:33;;;;;;;;;;;;;;;20.96;66.75;99114.41;7303810;19;130428;-37
2022/10/24 08:53:10;;;;;;;;;;;;;;;20.95;67.12;99116.19;7301843;19;130875;-38
2022/10/24 08:55:38;;;;;;;;;;;;;;;20.92;66.86;99108.66;7300978;19;131434;-37
2022/10/24 08:58:04;;;;;;;;;;;;;;;20.90;67.17;99104.53;7302175;19;131411;-37
2022/10/24 09:00:35;;;;;;;;;;;;;;;20.91;66.93;99106.97;7306893;19;129064;-37
2022/10/24 09:03:05;;;;;;;;;;;;;;;20.89;67.21;99102.88;7306727;19;128872;-37
2022/10/24 09:05:34;;;;;;;;;;;;;;;20.89;66.88;99106.28;7302240;19;130731;-37
2022/10/24 09:08:03;;;;;;;;;;;;;;;20.90;66.95;99104.53;7310837;19;129716;-38
2022/10/24 09:10:46;;;;;;;;;;;;;;;20.89;67.17;99098.47;7314667;19;130434;-37
2022/10/24 09:13:14;;;;;;;;;;;;;;;20.83;66.76;99086.00;7314842;19;129362;-37
2022/10/24 09:15:42;;;;;;;;;;;;;;;20.87;66.75;99094.38;7311419;19;131178;-38
2022/10/24 09:18:27;;;;;;;;;;;;;;;20.87;67.40;99095.19;7309429;19;130039;-38
2022/10/24 09:20:52;;;;;;;;;;;;;;;20.87;66.81;99095.19;7307927;19;129063;-37
2022/10/24 09:23:19;;;;;;;;;;;;;;;20.90;67.50;99089.66;7309549;19;129081;-37
2022/10/24 09:25:48;;;;;;;;;;;;;;;20.90;66.84;99094.91;7311672;19;130391;-38
2022/10/24 09:28:14;;;;;;;;;;;;;;;20.89;66.69;99101.06;7307027;19;129913;-38
2022/10/24 09:30:39;;;;;;;;;;;;;;;20.93;67.33;99105.06;7311859;19;129580;-38
2022/10/24 09:33:23;;;;;;;;;;;;;;;20.93;67.07;99099.00;7308047;19;129970;-36
2022/10/24 09:35:50;;;;;;;;;;;;;;;20.95;67.30;99091.84;7312874;19;130710;-37
2022/10/24 09:38:21;;;;;;;;;;;;;;;20.92;67.07;99098.19;7309779;19;130665;-37
2022/10/24 09:40:50;;;;;;;;;;;;;;;20.94;66.70;99090.19;7312796;19;129294;-38
2022/10/24 09:43:21;;;;;;;;;;;;;;;20.92;67.31;99090.34;7310083;19;130953;-35
2022/10/24 09:45:52;;;;;;;;;;;;;;;20.96;66.96;99089.06;7313189;19;131808;-37
2022/10/24 09:48:17;;;;;;;;;;;;;;;20.98;66.91;99088.94;7310153;19;129512;-37
2022/10/24 09:50:43;;;;;;;;;;;;;;;20.97;66.68;99090.75;7309744;19;129880;-37
2022/10/24 09:53:19;;;;;;;;;;;;;;;20.96;66.73;99099.53;7302562;19;130244;-38
2022/10/24 09:55:45;;;;;;;;;;;;;;;20.97;67.07;99101.22;7312811;19;130162;-38
2022/10/24 09:58:16;;;;;;;;;;;;;;;20.99;67.07;99107.09;7304458;19;130885;-38
2022/10/24 10:00:41;;;;;;;;;;;;;;;20.97;66.65;99095.13;7313801;19;130214;-37
2022/10/24 10:03:20;;;;;;;;;;;;;;;20.96;66.83;99090.88;7312183;19;129064;-36
2022/10/24 10:05:47;;;;;;;;;;;;;;;21.00;67.13;99090.47;7301239;19;130120;-37
2022/10/24 10:08:18;;;;;;;;;;;;;;;21.00;66.47;99087.03;7310840;19;130199;-38
2022/10/24 10:10:53;;;;;;;;;;;;;;;20.98;67.36;99087.16;7312404;19;129999;-37
2022/10/24 10:13:22;;;;;;;;;;;;;;;21.02;66.71;99088.53;7304879;19;131171;-37
2022/10/24 10:15:50;;;;;;;;;;;;;;;21.02;66.95;99091.16;7313394;19;129364;-37
2022/10/24 10:18:24;;;;;;;;;;;;;;;21.01;67.00;99079.03;7300933;19;130317;-37
2022/10/24 10:21:16;;;;;;;;;;;;;;;21.03;66.22;99082.31;7310302;19;130727;-37
2022/10/24 10:23:48;;;;;;;;;;;;;;;21.05;66.30;99072.56;7305375;19;129841;-37
2022/10/24 10:26:26;;;;;;;;;;;;;;;21.03;66.62;99069.25;7311333;19;130534;-38
2022/10/24 10:29:18;;;;;;;;;;;;;;;21.00;66.43;99064.34;7310614;19;129820;-38
2022/10/24 10:32:05;;;;;;;;;;;;;;;21.01;66.65;99065.97;7304370;19;129923;-37
2022/10/24 10:34:44;;;;;;;;;;;;;;;21.01;67.07;99068.56;7310162;19;129307;-37
2022/10/24 10:37:28;;;;;;;;;;;;;;;21.03;66.31;99060.59;7303925;19;130958;-37
2022/10/24 10:39:56;;;;;;;;;;;;;;;20.91;66.54;99059.94;7310992;19;129109;-37
2022/10/24 10:42:40;;;;;;;;;;;;;;;21.00;66.44;99074.78;7308965;19;130338;-37
2022/10/24 10:45:20;;;;;;;;;;;;;;;21.00;66.78;99074.78;7312276;19;129512;-37
2022/10/24 10:47:52;;;;;;;;;;;;;;;21.04;66.17;99073.50;7304369;19;130541;-37
2022/10/24 10:50:23;;;;;;;;;;;;;;;20.98;66.15;99061.03;7310780;19;129438;-37
2022/10/24 10:52:49;;;;;;;;;;;;;;;21.05;66.22;99069.94;7306667;19;129664;-37
2022/10/24 10:55:21;;;;;;;;;;;;;;;21.02;66.02;99067.63;7308739;19;129591;-38
2022/10/24 10:57:46;;;;;;;;;;;;;;;21.06;66.12;99062.91;7309667;19;129121;-37
2022/10/24 11:00:14;;;;;;;;;;;;;;;21.05;66.66;99069.94;7311505;19;129442;-37
2022/10/24 11:02:58;;;;;;;;;;;;;;;21.04;66.73;99054.41;7310631;19;131818;-38
2022/10/24 11:05:23;;;;;;;;;;;;;;;21.02;66.77;99044.09;7313085;19;129826;-37
2022/10/24 11:07:48;;;;;;;;;;;;;;;21.03;66.27;99047.50;7310459;19;131530;-38
2022/10/24 11:10:17;;;;;;;;;;;;;;;21.00;66.88;99038.19;7313275;19;129656;-37
2022/10/24 11:12:43;;;;;;;;;;;;;;;21.03;66.40;99037.91;7309439;19;129788;-37
2022/10/24 11:15:20;;;;;;;;;;;;;;;21.01;66.68;99045.06;7311393;19;129073;-37
2022/10/24 11:17:52;;;;;;;;;;;;;;;20.93;66.50;99013.59;7308912;19;130986;-37
2022/10/24 11:20:17;;;;;;;;;;;;;;;21.00;66.75;99042.59;7309912;19;130301;-37
2022/10/24 11:22:49;;;;;;;;;;;;;;;21.04;66.15;99044.75;7309186;19;129673;-37
2022/10/24 11:25:17;;;;;;;;;;;;;;;20.95;66.11;99037.78;7311719;19;131428;-37
2022/10/24 11:27:46;;;;;;;;;;;;;;;21.01;66.35;99055.50;7308936;19;129604;-37
2022/10/24 11:30:15;;;;;;;;;;;;;;;21.03;66.45;99063.19;7311973;19;129733;-37
2022/10/24 11:32:53;;;;;;;;;;;;;;;21.01;66.86;99045.06;7307914;19;129027;-37
2022/10/24 11:35:25;;;;;;;;;;;;;;;21.01;66.78;99045.06;7308564;19;130841;-38
2022/10/24 11:37:55;;;;;;;;;;;;;;;21.03;66.07;99045.72;7310831;19;131189;-37
2022/10/24 11:40:21;;;;;;;;;;;;;;;20.98;66.30;99044.53;7308902;19;130308;-37
2022/10/24 11:42:49;;;;;;;;;;;;;;;21.01;66.51;99039.00;7307454;19;130339;-37
2022/10/24 11:45:16;;;;;;;;;;;;;;;20.96;66.38;99026.34;7310823;19;129377;-38
2022/10/24 11:47:41;;;;;;;;;;;;;;;20.97;66.92;99033.28;7307370;19;129851;-37
2022/10/24 11:50:16;;;;;;;;;;;;;;;20.87;66.63;99016.81;7312119;19;130221;-38
2022/10/24 11:52:43;;;;;;;;;;;;;;;20.99;66.31;99035.75;7307150;19;130752;-37
2022/10/24 11:55:19;;;;;;;;;;;;;;;20.98;66.72;99041.91;7311921;19;129595;-38
2022/10/24 11:57:47;;;;;;;;;;;;;;;20.99;66.26;99040.97;7307999;19;129528;-37
2022/10/24 12:00:18;;;;;;;;;;;;;;;21.00;66.34;99046.03;7310632;19;129644;-37
2022/10/24 12:02:52;;;;;;;;;;;;;;;21.02;66.60;99049.34;7308710;19;129006;-37
2022/10/24 12:05:38;;;;;;;;;;;;;;;21.04;66.39;99051.78;7312191;19;129796;-37
2022/10/24 12:08:06;;;;;;;;;;;;;;;21.02;66.72;99051.94;7307168;19;131366;-37
2022/10/24 12:10:31;;;;;;;;;;;;;;;21.02;66.81;99041.50;7312165;19;129384;-37
2022/10/24 12:13:35;;;;;;;;;;;;;;;20.91;66.07;99012.13;7308917;19;129611;-36
2022/10/24 12:16:13;;;;;;;;;;;;;;;21.00;66.17;99017.28;7306854;19;130353;-37
2022/10/24 12:18:51;;;;;;;;;;;;;;;21.04;66.46;99018.63;7303774;19;130304;-37
2022/10/24 12:21:21;;;;;;;;;;;;;;;21.05;66.38;99035.13;7309355;19;130658;-37
2022/10/24 12:23:57;;;;;;;;;;;;;;;20.97;66.06;99053.31;7309134;19;130071;-37
2022/10/24 12:26:25;;;;;;;;;;;;;;;21.08;66.00;99063.56;7311307;19;129087;-37
2022/10/24 12:28:58;;;;;;;;;;;;;;;21.10;65.76;99059.84;7305945;19;130107;-37
2022/10/24 12:31:30;;;;;;;;;;;;;;;21.08;66.58;99059.19;7310305;19;129355;-37
2022/10/24 12:34:13;;;;;;;;;;;;;;;21.14;66.34;99070.84;7310072;19;129517;-37
2022/10/24 12:36:57;;;;;;;;;;;;;;;21.15;66.38;99054.16;7311255;19;129653;-36
2022/10/24 12:39:29;;;;;;;;;;;;;;;21.12;65.58;99050.06;7306744;19;129513;-37
2022/10/24 12:41:55;;;;;;;;;;;;;;;21.14;65.64;99060.38;7310011;19;132081;-37